Terminal Aerodrome Forecast
Issued by NWS

Home | Current Version | Previous Version | Text Only | Print | Product List | Glossary On
Versions: 1 2 3 4 5 6 7 8 9 10 11 12 13 14 15 16 17
000
FTUS45 KTFX 221752
TAFBZN
TAF
KBZN 221752Z 2218/2318 24007KT P6SM VCSH SCT025 BKN040
      TEMPO 2218/2221 4SM -SN BKN025
     FM222100 28006KT P6SM BKN035
      TEMPO 2221/2224 4SM -SHSN OVC025
     FM230800 27010KT P6SM VCSH SCT040 BKN060=

USA.gov is the U.S. government's official web portal to all federal, state and local government web resources and services.